createdAt,value
2022-09-01T00:00:14.032Z,17.17
2022-09-01T00:05:36.205Z,16.88
2022-09-01T00:10:57.981Z,16.97
2022-09-01T00:16:20.714Z,16.88
2022-09-01T00:21:44.735Z,16.97
2022-09-01T00:27:06.566Z,16.90
2022-09-01T00:32:29.343Z,16.86
2022-09-01T00:37:51.094Z,16.82
2022-09-01T00:43:22.214Z,16.89
2022-09-01T00:48:43.983Z,16.88
2022-09-01T00:54:08.468Z,16.74
2022-09-01T00:59:30.746Z,16.63
2022-09-01T01:04:52.828Z,16.65
2022-09-01T01:10:17.048Z,16.41
2022-09-01T01:15:39.045Z,16.47
2022-09-01T01:21:26.018Z,16.30
2022-09-01T01:26:48.088Z,16.37
2022-09-01T01:32:13.343Z,16.39
2022-09-01T01:37:36.493Z,16.32
2022-09-01T01:42:59.111Z,16.40
2022-09-01T01:48:23.915Z,16.43
2022-09-01T01:53:47.229Z,16.59
2022-09-01T01:59:11.733Z,16.67
2022-09-01T02:04:34.405Z,16.40
2022-09-01T02:09:57.524Z,16.41
2022-09-01T02:15:20.327Z,16.18
2022-09-01T02:20:43.189Z,16.30
2022-09-01T02:26:22.029Z,16.04
2022-09-01T02:31:44.998Z,15.90
2022-09-01T02:37:06.738Z,15.86
2022-09-01T02:42:29.581Z,15.74
2022-09-01T02:47:52.359Z,15.99
2022-09-01T02:53:15.452Z,16.05
2022-09-01T02:58:46.231Z,16.00
2022-09-01T03:04:12.642Z,15.93
2022-09-01T03:09:35.437Z,16.17
2022-09-01T03:14:57.161Z,15.96
2022-09-01T03:20:20.110Z,15.96
2022-09-01T03:25:43.885Z,15.91
2022-09-01T03:31:06.152Z,16.01
2022-09-01T03:36:28.464Z,15.99
2022-09-01T03:41:50.223Z,15.70
2022-09-01T03:47:15.204Z,15.46
2022-09-01T03:52:39.286Z,15.31
2022-09-01T03:58:06.252Z,15.28
2022-09-01T04:03:34.513Z,15.27
2022-09-01T04:09:02.941Z,15.20
2022-09-01T04:14:25.556Z,15.08
2022-09-01T04:19:49.274Z,15.28
2022-09-01T04:25:11.015Z,15.51
2022-09-01T04:30:33.623Z,15.63
2022-09-01T04:35:56.661Z,15.34
2022-09-01T04:41:20.636Z,15.44
2022-09-01T04:46:46.305Z,15.44
2022-09-01T04:52:08.158Z,15.59
2022-09-01T04:57:31.493Z,15.45
2022-09-01T05:03:03.366Z,15.24
2022-09-01T05:08:25.413Z,15.22
2022-09-01T05:13:49.169Z,15.24
2022-09-01T05:19:14.778Z,15.65
2022-09-01T05:24:41.744Z,15.72
2022-09-01T05:30:08.442Z,15.69
2022-09-01T05:35:32.703Z,15.99
2022-09-01T05:40:58.923Z,15.94
2022-09-01T05:46:24.147Z,15.91
2022-09-01T05:51:52.383Z,15.94
2022-09-01T05:57:33.258Z,15.96
2022-09-01T06:02:58.010Z,15.82
2022-09-01T06:08:22.961Z,15.90
2022-09-01T06:13:47.198Z,16.06
2022-09-01T06:19:10.474Z,16.01
2022-09-01T06:24:32.501Z,16.16
2022-09-01T06:29:54.820Z,16.23
2022-09-01T06:35:17.940Z,16.31
2022-09-01T06:40:42.164Z,16.32
2022-09-01T06:46:03.927Z,16.32
2022-09-01T06:51:30.906Z,16.40
2022-09-01T06:56:53.489Z,16.55
2022-09-01T07:02:17.821Z,16.59
2022-09-01T07:13:25.354Z,16.74
2022-09-01T07:18:58.371Z,16.85
2022-09-01T07:24:20.501Z,16.94
2022-09-01T07:29:42.324Z,16.91
2022-09-01T07:35:07.476Z,17.06
2022-09-01T07:52:03.754Z,17.46
2022-09-01T07:57:26.478Z,17.61
2022-09-01T08:02:52.012Z,17.65
2022-09-01T08:08:21.826Z,17.84
2022-09-01T08:13:51.980Z,17.92
2022-09-01T08:19:17.138Z,17.97
2022-09-01T08:24:38.889Z,18.09
2022-09-01T08:30:00.695Z,18.13
2022-09-01T08:35:22.764Z,18.21
2022-09-01T08:40:56.299Z,18.27
2022-09-01T08:46:34.888Z,18.30
2022-09-01T08:52:19.561Z,18.35
2022-09-01T08:57:45.294Z,18.35
2022-09-01T09:03:13.541Z,18.40
2022-09-01T09:08:51.548Z,18.37
2022-09-01T09:14:33.807Z,18.45
2022-09-01T09:19:55.708Z,18.57
2022-09-01T09:25:19.296Z,18.58
2022-09-01T09:30:41.440Z,18.60
2022-09-01T09:36:36.544Z,18.60
2022-09-01T09:42:09.606Z,18.71
2022-09-01T09:47:44.627Z,18.75
2022-09-01T09:53:15.445Z,18.81
2022-09-01T09:58:40.501Z,18.96
2022-09-01T10:04:04.146Z,19.02
2022-09-01T10:09:26.689Z,19.06
2022-09-01T10:14:53.773Z,19.06
2022-09-01T10:20:24.469Z,19.08
2022-09-01T10:25:50.284Z,19.17
2022-09-01T10:31:12.108Z,19.18
2022-09-01T10:36:36.709Z,19.25
2022-09-01T10:42:07.556Z,19.33
2022-09-01T10:47:33.770Z,19.49
2022-09-01T10:53:01.401Z,19.62
2022-09-01T11:04:45.754Z,19.76
2022-09-01T11:10:35.395Z,19.85
2022-09-01T11:22:15.149Z,19.79
2022-09-01T11:27:57.178Z,19.82
2022-09-01T11:33:28.865Z,19.93
2022-09-01T11:38:58.329Z,20.14
2022-09-01T11:44:28.001Z,20.25
2022-09-01T11:50:03.344Z,20.42
2022-09-01T11:55:40.058Z,20.62
2022-09-01T12:01:22.225Z,20.69
2022-09-01T12:06:52.842Z,20.55
2022-09-01T12:12:34.585Z,20.61
2022-09-01T12:18:19.251Z,20.69
2022-09-01T12:23:43.339Z,20.84
2022-09-01T12:29:07.029Z,20.86
2022-09-01T12:34:44.153Z,20.86
2022-09-01T12:40:07.612Z,20.95
2022-09-01T12:46:02.895Z,21.18
2022-09-01T12:51:30.972Z,21.24
2022-09-01T12:56:53.392Z,21.26
2022-09-01T13:02:49.699Z,21.35
2022-09-01T13:08:18.473Z,21.42
2022-09-01T13:13:40.929Z,21.44
2022-09-01T13:19:11.670Z,21.55
2022-09-01T13:24:36.646Z,21.47
2022-09-01T13:29:58.701Z,21.47
2022-09-01T13:35:22.297Z,21.37
2022-09-01T13:40:47.275Z,21.37
2022-09-01T13:46:09.494Z,21.35
2022-09-01T13:51:31.594Z,21.27
2022-09-01T13:56:53.885Z,21.24
2022-09-01T14:02:15.659Z,21.40
2022-09-01T14:07:38.323Z,21.54
2022-09-01T14:13:00.470Z,21.83
2022-09-01T14:18:22.593Z,21.81
2022-09-01T14:23:46.164Z,21.90
2022-09-01T14:29:08.296Z,21.86
2022-09-01T14:34:30.910Z,21.98
2022-09-01T14:39:55.296Z,22.09
2022-09-01T14:45:22.893Z,22.19
2022-09-01T14:50:48.760Z,22.15
2022-09-01T14:56:11.658Z,22.09
2022-09-01T15:01:35.145Z,22.02
2022-09-01T15:06:57.216Z,21.94
2022-09-01T15:12:19.959Z,21.92
2022-09-01T15:17:44.551Z,21.91
2022-09-01T15:23:08.937Z,21.91
2022-09-01T15:28:30.679Z,21.95
2022-09-01T15:33:55.678Z,21.91
2022-09-01T15:39:17.391Z,22.06
2022-09-01T15:44:39.238Z,22.05
2022-09-01T15:50:00.973Z,21.99
2022-09-01T15:55:27.093Z,22.01
2022-09-01T16:00:48.865Z,21.97
2022-09-01T16:06:11.499Z,21.96
2022-09-01T16:11:33.257Z,21.92
2022-09-01T16:17:12.306Z,21.91
2022-09-01T16:22:56.837Z,21.89
2022-09-01T16:28:22.881Z,21.88
2022-09-01T16:33:49.754Z,21.85
2022-09-01T16:39:40.268Z,21.84
2022-09-01T16:45:05.830Z,21.78
2022-09-01T16:50:39.019Z,21.77
2022-09-01T16:56:12.105Z,21.78
2022-09-01T17:01:47.262Z,21.74
2022-09-01T17:07:26.375Z,21.68
2022-09-01T17:12:57.912Z,21.64
2022-09-01T17:18:36.794Z,21.58
2022-09-01T17:24:24.103Z,21.53
2022-09-01T17:29:52.671Z,21.44
2022-09-01T17:35:32.331Z,21.28
2022-09-01T17:41:19.205Z,21.22
2022-09-01T17:46:56.440Z,21.08
2022-09-01T17:52:57.151Z,21.00
2022-09-01T17:58:58.384Z,20.85
2022-09-01T18:04:38.813Z,20.83
2022-09-01T18:10:03.497Z,20.72
2022-09-01T18:15:27.031Z,20.60
2022-09-01T18:20:53.054Z,20.54
2022-09-01T18:26:31.169Z,20.39
2022-09-01T18:31:58.672Z,20.28
2022-09-01T18:37:38.829Z,20.13
2022-09-01T18:43:25.561Z,20.09
2022-09-01T18:49:04.333Z,20.03
2022-09-01T18:54:41.299Z,19.94
2022-09-01T19:00:19.027Z,19.85
2022-09-01T19:05:51.904Z,19.81
2022-09-01T19:11:51.786Z,19.65
2022-09-01T19:17:24.938Z,19.63
2022-09-01T19:22:58.257Z,19.55
2022-09-01T19:28:49.256Z,19.50
2022-09-01T19:34:15.991Z,19.44
2022-09-01T19:39:44.461Z,19.36
2022-09-01T19:45:16.834Z,19.30
2022-09-01T19:50:51.055Z,19.27
2022-09-01T19:56:30.889Z,19.22
2022-09-01T20:02:02.236Z,19.16
2022-09-01T20:07:50.893Z,19.06
2022-09-01T20:13:50.677Z,18.87
2022-09-01T20:19:27.616Z,18.99
2022-09-01T20:24:49.771Z,18.92
2022-09-01T20:30:25.870Z,18.70
2022-09-01T20:35:57.775Z,18.72
2022-09-01T20:41:41.872Z,18.58
2022-09-01T20:47:05.328Z,18.54
2022-09-01T20:52:49.917Z,18.64
2022-09-01T20:58:22.186Z,18.46
2022-09-01T21:04:06.325Z,18.52
2022-09-01T21:10:03.009Z,18.67
2022-09-01T21:15:30.605Z,18.72
2022-09-01T21:21:16.423Z,18.57
2022-09-01T21:26:40.162Z,18.49
2022-09-01T21:32:02.314Z,18.51
2022-09-01T21:37:25.897Z,18.37
2022-09-01T21:43:01.118Z,18.44
2022-09-01T21:48:23.278Z,18.32
2022-09-01T21:53:45.065Z,18.18
2022-09-01T21:59:06.835Z,18.17
2022-09-01T22:04:28.659Z,18.00
2022-09-01T22:09:50.423Z,18.15
2022-09-01T22:15:15.267Z,18.17
2022-09-01T22:20:37.926Z,18.09
2022-09-01T22:25:59.800Z,18.10
2022-09-01T22:31:22.889Z,17.93
2022-09-01T22:36:48.138Z,17.87
2022-09-01T22:42:10.037Z,17.79
2022-09-01T22:47:35.302Z,17.75
2022-09-01T22:52:58.960Z,17.64
2022-09-01T22:58:21.129Z,17.47
2022-09-01T23:03:44.711Z,17.43
2022-09-01T23:09:07.213Z,17.43
2022-09-01T23:14:29.007Z,17.44
2022-09-01T23:19:50.769Z,17.36
2022-09-01T23:25:14.505Z,17.33
2022-09-01T23:30:37.857Z,17.12
2022-09-01T23:36:00.111Z,17.23
2022-09-01T23:41:31.027Z,17.17
2022-09-01T23:46:52.801Z,17.14
2022-09-01T23:52:14.876Z,17.15
2022-09-01T23:57:36.686Z,17.06
